Mia 1 — 9HB5653 — position and weather

sailwx.info

Track history (hours):
 
Tides and Currents Weather Stations Pressure Air Temp Water Temp Dewpoint Dewpoint Depression Visibility Wind Speed Wind Dir Waves Ship Positions

Mia 1

Last reported at 2018-Jun-20 00:49 UTC. Time now 2018-Aug-18 22:28 UTC.
Position N 37°60' E 022°53'.
Warning: this ship's position is 59 days out of date.

; draft 3.5 m.

Type: Sailing vessel. MMSI: 215000866.

Date/timePositionNaut miles runAvg speedWind from/ knotsBaromVisibWave heightAir tempDewpointWater temp
2018-Jun-20 00:49N 37°60' E 022°53'310.5
2018-Jun-20 00:30N 37°58' E 022°56'4 5.8
2018-Jun-19 23:45N 37°55' E 023°00'0 1.0
2018-Jun-19 23:30N 37°55' E 023°01'1 1.8
2018-Jun-19 23:01N 37°55' E 023°02'2 4.8
2018-Jun-19 22:31N 37°54' E 023°04'5 9.6
2018-Jun-19 22:01N 37°53' E 023°10'510.4
2018-Jun-19 21:31N 37°52' E 023°17'510.3
2018-Jun-19 21:00N 37°50' E 023°23'510.5
2018-Jun-19 20:31N 37°49' E 023°29'510.3
2018-Jun-19 20:01N 37°47' E 023°36'510.0
2018-Jun-19 19:31N 37°45' E 023°41'5410.3
2018-Jun-19 14:17N 37°24' E 024°44'310.8
2018-Jun-19 13:59N 37°23' E 024°48'511.0
2018-Jun-19 13:30N 37°21' E 024°54'1111.3
2018-Jun-19 12:33N 37°20' E 025°08'010.9
2018-Jun-19 12:30N 37°20' E 025°08'510.9
2018-Jun-19 12:01N 37°19' E 025°15'510.3
2018-Jun-19 11:31N 37°17' E 025°21'510.5
2018-Jun-19 11:00N 37°16' E 025°28'1110.3
2018-Jun-19 09:57N 37°13' E 025°41'410.1
2018-Jun-19 09:30N 37°12' E 025°46'  
Track history (hours):
 
Tides and Currents Weather Stations Pressure Air Temp Water Temp Dewpoint Dewpoint Depression Visibility Wind Speed Wind Dir Waves Ship Positions

Mia 1

Last reported at 2018-Jun-20 00:49 UTC. Time now 2018-Aug-18 22:28 UTC.
Position N 37°60' E 022°53'.
Warning: this ship's position is 59 days out of date.

; draft 3.5 m.

Type: Sailing vessel. MMSI: 215000866.

Date/timePositionNaut miles runAvg speedWind from/ knotsBaromVisibWave heightAir tempDewpointWater temp
2018-Jun-20 00:49N 37°60' E 022°53'310.5
2018-Jun-20 00:30N 37°58' E 022°56'4 5.8
2018-Jun-19 23:45N 37°55' E 023°00'0 1.0
2018-Jun-19 23:30N 37°55' E 023°01'1 1.8
2018-Jun-19 23:01N 37°55' E 023°02'2 4.8
2018-Jun-19 22:31N 37°54' E 023°04'5 9.6
2018-Jun-19 22:01N 37°53' E 023°10'510.4
2018-Jun-19 21:31N 37°52' E 023°17'510.3
2018-Jun-19 21:00N 37°50' E 023°23'510.5
2018-Jun-19 20:31N 37°49' E 023°29'510.3
2018-Jun-19 20:01N 37°47' E 023°36'510.0
2018-Jun-19 19:31N 37°45' E 023°41'5410.3
2018-Jun-19 14:17N 37°24' E 024°44'310.8
2018-Jun-19 13:59N 37°23' E 024°48'511.0
2018-Jun-19 13:30N 37°21' E 024°54'1111.3
2018-Jun-19 12:33N 37°20' E 025°08'010.9
2018-Jun-19 12:30N 37°20' E 025°08'510.9
2018-Jun-19 12:01N 37°19' E 025°15'510.3
2018-Jun-19 11:31N 37°17' E 025°21'510.5
2018-Jun-19 11:00N 37°16' E 025°28'1110.3
2018-Jun-19 09:57N 37°13' E 025°41'410.1
2018-Jun-19 09:30N 37°12' E 025°46'  

Dump ship's entire track history